BAW557 EGCC-FALE
Flight info
| Callsign | BAW557 |
|---|---|
| Flight time | N/A |
| Altitude | 35000 |
| Route | LISTO UL612 RESMI UN857 DISAK DCT NARAK DCT PUMAL/N0481F370 N859 MOGIL UB31 ZEM/N0479F360 UB726 BSA/N0480F370 UJ36 TGU UM508 BOD UM998 NEBRA/N0481F390 UM998 MIPKU/N0480F410 UM998 VUE UB733 BUGRO UM998 IBRIT UT941 RUDAS/N0422F230 G853 UTRUK G655 HGV/N0488F350 UZ17 GEROX/N0421F230 Q28 GETOK GETOK1D |
| Aircraft | B772/H-SDE2E3FGHIJ5LORVWXY/LB1D1 |
Departure
| Time | 2026-05-04 19:09 |
|---|---|
| Airport | Manchester Airport (EGCC) |
Arrival
| Time | N/A |
|---|---|
| Airport | King Shaka International Airport (FALE) |
| Time | Latitude | Longitude | Altitude | Speed | Heading |
|---|---|---|---|---|---|
| 2026-05-04 19:09 | 53.32239 | -2.32918 | 1207 ft | 209 kts | 226° |
| 2026-05-04 19:09 | 53.30905 | -2.34055 | 1807 ft | 226 kts | 189° |
| 2026-05-04 19:10 | 53.29323 | -2.33699 | 2226 ft | 241 kts | 158° |
| 2026-05-04 19:10 | 53.28265 | -2.32858 | 2367 ft | 254 kts | 152° |
| 2026-05-04 19:10 | 53.26168 | -2.30932 | 3019 ft | 263 kts | 151° |
| 2026-05-04 19:10 | 53.24558 | -2.29469 | 3647 ft | 265 kts | 152° |
| 2026-05-04 19:11 | 53.22929 | -2.27954 | 4263 ft | 269 kts | 150° |
| 2026-05-04 19:11 | 53.21304 | -2.26416 | 4853 ft | 272 kts | 150° |
| 2026-05-04 19:11 | 53.19634 | -2.24847 | 5003 ft | 278 kts | 151° |
| 2026-05-04 19:11 | 53.17930 | -2.23261 | 5006 ft | 285 kts | 151° |
| 2026-05-04 19:12 | 53.16137 | -2.21602 | 5025 ft | 307 kts | 151° |
| 2026-05-04 19:12 | 53.12298 | -2.18295 | 5395 ft | 315 kts | 157° |
| 2026-05-04 19:12 | 53.10258 | -2.16893 | 6208 ft | 315 kts | 158° |
| 2026-05-04 19:13 | 53.08221 | -2.15535 | 6907 ft | 316 kts | 158° |
| 2026-05-04 19:13 | 53.06177 | -2.14172 | 7569 ft | 320 kts | 158° |
| 2026-05-04 19:13 | 53.04104 | -2.12778 | 8223 ft | 323 kts | 158° |
| 2026-05-04 19:13 | 53.02037 | -2.11379 | 8890 ft | 326 kts | 158° |
| 2026-05-04 19:14 | 52.99922 | -2.09939 | 9571 ft | 328 kts | 158° |
| 2026-05-04 19:14 | 52.97790 | -2.08482 | 10188 ft | 331 kts | 158° |
| 2026-05-04 19:14 | 52.95610 | -2.06990 | 10428 ft | 348 kts | 158° |
| 2026-05-04 19:14 | 52.93333 | -2.05431 | 10646 ft | 365 kts | 158° |
| 2026-05-04 19:15 | 52.90954 | -2.03800 | 11122 ft | 374 kts | 158° |
| 2026-05-04 19:15 | 52.88526 | -2.02136 | 11754 ft | 380 kts | 158° |
| 2026-05-04 19:15 | 52.86066 | -2.00451 | 12527 ft | 383 kts | 158° |
| 2026-05-04 19:15 | 52.83593 | -1.98759 | 13351 ft | 386 kts | 158° |
| 2026-05-04 19:16 | 52.81093 | -1.97051 | 14103 ft | 390 kts | 158° |
| 2026-05-04 19:16 | 52.78575 | -1.95333 | 14827 ft | 394 kts | 158° |
| 2026-05-04 19:16 | 52.76028 | -1.93597 | 15553 ft | 397 kts | 159° |
| 2026-05-04 19:16 | 52.73460 | -1.91849 | 16294 ft | 401 kts | 159° |
| 2026-05-04 19:17 | 52.70867 | -1.90087 | 17032 ft | 404 kts | 159° |
| 2026-05-04 19:17 | 52.68277 | -1.88329 | 17764 ft | 408 kts | 159° |
| 2026-05-04 19:17 | 52.65635 | -1.86537 | 18475 ft | 411 kts | 159° |
| 2026-05-04 19:17 | 52.62972 | -1.84735 | 19112 ft | 415 kts | 159° |
| 2026-05-04 19:18 | 52.60328 | -1.82947 | 19760 ft | 418 kts | 159° |
| 2026-05-04 19:18 | 52.57615 | -1.81115 | 20413 ft | 421 kts | 160° |
| 2026-05-04 19:18 | 52.54893 | -1.79280 | 21073 ft | 424 kts | 160° |
| 2026-05-04 19:18 | 52.52147 | -1.77430 | 21717 ft | 427 kts | 160° |
| 2026-05-04 19:19 | 52.49389 | -1.75575 | 22325 ft | 430 kts | 160° |
| 2026-05-04 19:19 | 52.46607 | -1.73707 | 22922 ft | 433 kts | 161° |
| 2026-05-04 19:19 | 52.43840 | -1.71849 | 23480 ft | 436 kts | 161° |
| 2026-05-04 19:19 | 52.40993 | -1.69941 | 23966 ft | 439 kts | 161° |
| 2026-05-04 19:20 | 52.38188 | -1.68065 | 24420 ft | 441 kts | 161° |
| 2026-05-04 19:20 | 52.35338 | -1.66124 | 24865 ft | 444 kts | 158° |
| 2026-05-04 19:20 | 52.32548 | -1.63890 | 25276 ft | 448 kts | 156° |
| 2026-05-04 19:20 | 52.29758 | -1.61578 | 25667 ft | 451 kts | 155° |
| 2026-05-04 19:21 | 52.26943 | -1.59245 | 26074 ft | 454 kts | 155° |
| 2026-05-04 19:21 | 52.24109 | -1.56909 | 26457 ft | 456 kts | 155° |
| 2026-05-04 19:21 | 52.21305 | -1.54609 | 26829 ft | 458 kts | 155° |
| 2026-05-04 19:21 | 52.18436 | -1.52265 | 27215 ft | 460 kts | 155° |
| 2026-05-04 19:22 | 52.15559 | -1.49920 | 27558 ft | 463 kts | 155° |
| 2026-05-04 19:22 | 52.12694 | -1.47589 | 27899 ft | 465 kts | 155° |
| 2026-05-04 19:22 | 52.09786 | -1.45225 | 28216 ft | 467 kts | 155° |
| 2026-05-04 19:22 | 52.06858 | -1.42850 | 28547 ft | 469 kts | 155° |
| 2026-05-04 19:23 | 52.03956 | -1.40492 | 28848 ft | 471 kts | 155° |
| 2026-05-04 19:23 | 52.01004 | -1.38089 | 29075 ft | 472 kts | 155° |
| 2026-05-04 19:23 | 51.98057 | -1.35692 | 29358 ft | 474 kts | 155° |
| 2026-05-04 19:23 | 51.95114 | -1.33309 | 29625 ft | 475 kts | 155° |
| 2026-05-04 19:24 | 51.92132 | -1.30906 | 29850 ft | 476 kts | 155° |
| 2026-05-04 19:24 | 51.89188 | -1.28541 | 30142 ft | 476 kts | 155° |
| 2026-05-04 19:24 | 51.86201 | -1.26142 | 30460 ft | 474 kts | 155° |
| 2026-05-04 19:24 | 51.83280 | -1.23800 | 30758 ft | 473 kts | 155° |
| 2026-05-04 19:25 | 51.80323 | -1.21430 | 31044 ft | 471 kts | 155° |
| 2026-05-04 19:25 | 51.77374 | -1.19070 | 31333 ft | 470 kts | 155° |
| 2026-05-04 19:25 | 51.74480 | -1.16757 | 31608 ft | 469 kts | 155° |
| 2026-05-04 19:25 | 51.71539 | -1.14409 | 31884 ft | 468 kts | 155° |
| 2026-05-04 19:26 | 51.68651 | -1.12106 | 32159 ft | 466 kts | 155° |
| 2026-05-04 19:26 | 51.65727 | -1.09779 | 32418 ft | 465 kts | 155° |
| 2026-05-04 19:26 | 51.62852 | -1.07473 | 32666 ft | 464 kts | 153° |
| 2026-05-04 19:26 | 51.60035 | -1.04840 | 32940 ft | 464 kts | 148° |
| 2026-05-04 19:27 | 51.57430 | -1.01852 | 33199 ft | 464 kts | 145° |
| 2026-05-04 19:27 | 51.54808 | -0.98773 | 33420 ft | 464 kts | 146° |
| 2026-05-04 19:27 | 51.52212 | -0.95766 | 33677 ft | 463 kts | 146° |
| 2026-05-04 19:27 | 51.49581 | -0.92759 | 33920 ft | 462 kts | 146° |
| 2026-05-04 19:28 | 51.46918 | -0.89811 | 34137 ft | 461 kts | 149° |
| 2026-05-04 19:28 | 51.44163 | -0.87274 | 34283 ft | 461 kts | 154° |
| 2026-05-04 19:28 | 51.41235 | -0.85155 | 34423 ft | 460 kts | 160° |
| 2026-05-04 19:28 | 51.38270 | -0.83304 | 34560 ft | 461 kts | 160° |
| 2026-05-04 19:29 | 51.35267 | -0.81430 | 34728 ft | 461 kts | 159° |
| 2026-05-04 19:29 | 51.32291 | -0.79561 | 34881 ft | 462 kts | 159° |
| 2026-05-04 19:29 | 51.29269 | -0.77648 | 34947 ft | 464 kts | 159° |
| 2026-05-04 19:30 | 51.23276 | -0.73834 | 35030 ft | 467 kts | 159° |
| 2026-05-04 19:30 | 51.17200 | -0.69969 | 35031 ft | 472 kts | 159° |
| 2026-05-04 19:31 | 51.11103 | -0.66103 | 35025 ft | 475 kts | 159° |
| 2026-05-04 19:31 | 51.04997 | -0.61894 | 35005 ft | 479 kts | 153° |
| 2026-05-04 19:32 | 50.99355 | -0.56185 | 35006 ft | 482 kts | 147° |
| 2026-05-04 19:32 | 50.93795 | -0.50161 | 35002 ft | 484 kts | 147° |
| 2026-05-04 19:33 | 50.88386 | -0.44387 | 35006 ft | 484 kts | 148° |
| 2026-05-04 19:33 | 50.82792 | -0.38468 | 34986 ft | 484 kts | 148° |
| 2026-05-04 19:34 | 50.77198 | -0.32566 | 34986 ft | 483 kts | 148° |
| 2026-05-04 19:34 | 50.71615 | -0.26688 | 34985 ft | 481 kts | 148° |
| 2026-05-04 19:35 | 50.66029 | -0.20827 | 35001 ft | 479 kts | 148° |
| 2026-05-04 19:35 | 50.60508 | -0.15050 | 35004 ft | 478 kts | 148° |
| 2026-05-04 19:36 | 50.54954 | -0.09251 | 35003 ft | 476 kts | 149° |
| 2026-05-04 19:36 | 50.49452 | -0.03521 | 34998 ft | 475 kts | 149° |
| 2026-05-04 19:37 | 50.43968 | 0.02160 | 35004 ft | 474 kts | 149° |
| 2026-05-04 19:37 | 50.38408 | 0.07799 | 34998 ft | 474 kts | 149° |
| 2026-05-04 19:38 | 50.32870 | 0.13377 | 35000 ft | 474 kts | 149° |
| 2026-05-04 19:38 | 50.27330 | 0.18954 | 34999 ft | 474 kts | 149° |
| 2026-05-04 19:39 | 50.21779 | 0.24538 | 34994 ft | 474 kts | 149° |
| 2026-05-04 19:39 | 50.16260 | 0.30076 | 34998 ft | 474 kts | 149° |
| 2026-05-04 19:40 | 50.10684 | 0.35657 | 34991 ft | 475 kts | 150° |
| 2026-05-04 19:40 | 50.05101 | 0.41228 | 34990 ft | 475 kts | 150° |
| 2026-05-04 19:41 | 49.99569 | 0.46733 | 34988 ft | 475 kts | 150° |
| 2026-05-04 19:41 | 49.93985 | 0.52274 | 34989 ft | 475 kts | 150° |
| 2026-05-04 19:42 | 49.88445 | 0.57756 | 34987 ft | 475 kts | 150° |
| 2026-05-04 19:42 | 49.82873 | 0.63253 | 34988 ft | 475 kts | 150° |
| 2026-05-04 19:43 | 49.77303 | 0.68734 | 34979 ft | 475 kts | 150° |
| 2026-05-04 19:43 | 49.71694 | 0.74240 | 34976 ft | 474 kts | 150° |
| 2026-05-04 19:44 | 49.66128 | 0.79686 | 34973 ft | 474 kts | 150° |
| 2026-05-04 19:44 | 49.60563 | 0.85117 | 34973 ft | 474 kts | 150° |
| 2026-05-04 19:45 | 49.54999 | 0.90532 | 34970 ft | 474 kts | 150° |
| 2026-05-04 19:45 | 49.49391 | 0.95975 | 34963 ft | 474 kts | 151° |
| 2026-05-04 19:46 | 49.43851 | 1.01337 | 34969 ft | 474 kts | 151° |
| 2026-05-04 19:46 | 49.38228 | 1.06765 | 34963 ft | 474 kts | 151° |
| 2026-05-04 19:47 | 49.32644 | 1.12142 | 34966 ft | 475 kts | 151° |
| 2026-05-04 19:47 | 49.27045 | 1.17517 | 34963 ft | 475 kts | 151° |
| 2026-05-04 19:48 | 49.21450 | 1.22873 | 34961 ft | 475 kts | 151° |
| 2026-05-04 19:48 | 49.15848 | 1.28223 | 34967 ft | 475 kts | 151° |
| 2026-05-04 19:49 | 49.10224 | 1.33579 | 34966 ft | 476 kts | 151° |
| 2026-05-04 19:49 | 49.04606 | 1.38915 | 34964 ft | 476 kts | 152° |
| 2026-05-04 19:50 | 48.98983 | 1.44241 | 34962 ft | 476 kts | 152° |
| 2026-05-04 19:50 | 48.93345 | 1.49566 | 34957 ft | 476 kts | 152° |
| 2026-05-04 19:51 | 48.87703 | 1.54881 | 34952 ft | 476 kts | 152° |
| 2026-05-04 19:51 | 48.82114 | 1.60133 | 34951 ft | 475 kts | 152° |
| 2026-05-04 19:52 | 48.76482 | 1.65411 | 34950 ft | 475 kts | 152° |
| 2026-05-04 19:52 | 48.71795 | 1.69792 | 34951 ft | 474 kts | 152° |
| 2026-05-04 19:53 | 48.66197 | 1.75014 | 34953 ft | 473 kts | 152° |
| 2026-05-04 19:53 | 48.60603 | 1.80216 | 34952 ft | 472 kts | 153° |
| 2026-05-04 19:54 | 48.55000 | 1.85414 | 34949 ft | 471 kts | 153° |
| 2026-05-04 19:54 | 48.49416 | 1.90580 | 34961 ft | 471 kts | 153° |
| 2026-05-04 19:55 | 48.43832 | 1.95733 | 34954 ft | 470 kts | 153° |
| 2026-05-04 19:55 | 48.38263 | 2.00862 | 34947 ft | 469 kts | 153° |
| 2026-05-04 19:56 | 48.32691 | 2.05963 | 34933 ft | 468 kts | 154° |
| 2026-05-04 19:56 | 48.26780 | 2.09753 | 34948 ft | 459 kts | 166° |
| 2026-05-04 19:57 | 48.20584 | 2.11747 | 34940 ft | 454 kts | 175° |
| 2026-05-04 19:57 | 48.14306 | 2.12853 | 34942 ft | 452 kts | 179° |
| 2026-05-04 19:58 | 48.08033 | 2.12718 | 34941 ft | 450 kts | 186° |
| 2026-05-04 19:58 | 48.01743 | 2.12295 | 34934 ft | 451 kts | 183° |
| 2026-05-04 19:59 | 47.95503 | 2.12202 | 34939 ft | 451 kts | 182° |
| 2026-05-04 19:59 | 47.89191 | 2.12116 | 34942 ft | 452 kts | 183° |
| 2026-05-04 20:00 | 47.82916 | 2.11995 | 34939 ft | 452 kts | 183° |
| 2026-05-04 20:00 | 47.76618 | 2.11856 | 34935 ft | 452 kts | 183° |
| 2026-05-04 20:01 | 47.70327 | 2.11712 | 34940 ft | 452 kts | 183° |
| 2026-05-04 20:01 | 47.64053 | 2.11570 | 34933 ft | 452 kts | 183° |
| 2026-05-04 20:02 | 47.57761 | 2.11429 | 34935 ft | 452 kts | 183° |
| 2026-05-04 20:02 | 47.51478 | 2.11289 | 34931 ft | 451 kts | 183° |
| 2026-05-04 20:03 | 47.45173 | 2.11148 | 34925 ft | 451 kts | 183° |
| 2026-05-04 20:03 | 47.38919 | 2.11009 | 34924 ft | 451 kts | 183° |
| 2026-05-04 20:04 | 47.32620 | 2.10869 | 34923 ft | 451 kts | 183° |
| 2026-05-04 20:04 | 47.26352 | 2.10731 | 34915 ft | 451 kts | 183° |
| 2026-05-04 20:05 | 47.20095 | 2.10592 | 34924 ft | 450 kts | 183° |
| 2026-05-04 20:05 | 47.13837 | 2.10454 | 34922 ft | 450 kts | 183° |
| 2026-05-04 20:06 | 47.07554 | 2.10316 | 34920 ft | 450 kts | 183° |
| 2026-05-04 20:06 | 47.01301 | 2.10179 | 34918 ft | 450 kts | 183° |
| 2026-05-04 20:07 | 46.95042 | 2.10042 | 34912 ft | 450 kts | 183° |
| 2026-05-04 20:07 | 46.88784 | 2.09906 | 34915 ft | 450 kts | 183° |
| 2026-05-04 20:08 | 46.82526 | 2.09770 | 34915 ft | 449 kts | 183° |
| 2026-05-04 20:08 | 46.76271 | 2.09634 | 34913 ft | 449 kts | 183° |
| 2026-05-04 20:09 | 46.70017 | 2.09498 | 34913 ft | 449 kts | 183° |
| 2026-05-04 20:09 | 46.63778 | 2.09363 | 34916 ft | 449 kts | 183° |
| 2026-05-04 20:10 | 46.57554 | 2.09229 | 34913 ft | 449 kts | 183° |
| 2026-05-04 20:10 | 46.51324 | 2.09095 | 34911 ft | 448 kts | 183° |
| 2026-05-04 20:11 | 46.45063 | 2.08960 | 34914 ft | 448 kts | 183° |
| 2026-05-04 20:11 | 46.38843 | 2.08827 | 34912 ft | 448 kts | 183° |
| 2026-05-04 20:12 | 46.32632 | 2.08694 | 34914 ft | 448 kts | 183° |
| 2026-05-04 20:12 | 46.26393 | 2.08561 | 34917 ft | 447 kts | 183° |
| 2026-05-04 20:13 | 46.20165 | 2.08428 | 34911 ft | 447 kts | 183° |
| 2026-05-04 20:13 | 46.13941 | 2.08296 | 34921 ft | 447 kts | 183° |
| 2026-05-04 20:14 | 46.07684 | 2.08164 | 34918 ft | 447 kts | 183° |
| 2026-05-04 20:14 | 46.01479 | 2.08033 | 34915 ft | 447 kts | 183° |
| 2026-05-04 20:15 | 45.95266 | 2.07902 | 34927 ft | 447 kts | 183° |
| 2026-05-04 20:15 | 45.89053 | 2.07771 | 34920 ft | 447 kts | 183° |
| 2026-05-04 20:16 | 45.82856 | 2.07641 | 34925 ft | 447 kts | 183° |
| 2026-05-04 20:16 | 45.76613 | 2.07510 | 34929 ft | 446 kts | 183° |
| 2026-05-04 20:17 | 45.70411 | 2.07380 | 34929 ft | 446 kts | 183° |
| 2026-05-04 20:17 | 45.64197 | 2.07251 | 34930 ft | 446 kts | 183° |
| 2026-05-04 20:18 | 45.57996 | 2.07122 | 34930 ft | 446 kts | 182° |
| 2026-05-04 20:18 | 45.51816 | 2.06993 | 34937 ft | 445 kts | 182° |
| 2026-05-04 20:19 | 45.45595 | 2.06864 | 34935 ft | 445 kts | 182° |
| 2026-05-04 20:19 | 45.39415 | 2.06737 | 34931 ft | 445 kts | 182° |
| 2026-05-04 20:20 | 45.33224 | 2.06609 | 34939 ft | 444 kts | 182° |
| 2026-05-04 20:20 | 45.27080 | 2.06482 | 34933 ft | 444 kts | 182° |
| 2026-05-04 20:21 | 45.20906 | 2.06355 | 34929 ft | 444 kts | 182° |
| 2026-05-04 20:21 | 45.11626 | 2.06165 | 34936 ft | 444 kts | 182° |
| 2026-05-04 20:22 | 45.05470 | 2.06040 | 34943 ft | 444 kts | 182° |
| 2026-05-04 20:22 | 44.99295 | 2.05914 | 34946 ft | 444 kts | 182° |
| 2026-05-04 20:23 | 44.93092 | 2.05788 | 34957 ft | 444 kts | 182° |
| 2026-05-04 20:23 | 44.86896 | 2.05662 | 34956 ft | 445 kts | 182° |
| 2026-05-04 20:24 | 44.80725 | 2.05537 | 34949 ft | 446 kts | 182° |
| 2026-05-04 20:24 | 44.74518 | 2.05411 | 34951 ft | 446 kts | 182° |
| 2026-05-04 20:25 | 44.68310 | 2.05286 | 34944 ft | 447 kts | 182° |
| 2026-05-04 20:25 | 44.62096 | 2.05161 | 34942 ft | 447 kts | 182° |
| 2026-05-04 20:26 | 44.55863 | 2.05037 | 34943 ft | 448 kts | 182° |
| 2026-05-04 20:26 | 44.49668 | 2.04912 | 34942 ft | 448 kts | 182° |
| 2026-05-04 20:27 | 44.43405 | 2.04786 | 34940 ft | 448 kts | 182° |
| 2026-05-04 20:27 | 44.37162 | 2.04662 | 34943 ft | 449 kts | 182° |
| 2026-05-04 20:28 | 44.30920 | 2.04538 | 34941 ft | 449 kts | 182° |
| 2026-05-04 20:28 | 44.24689 | 2.04414 | 34946 ft | 449 kts | 182° |
| 2026-05-04 20:29 | 44.18439 | 2.04290 | 34944 ft | 450 kts | 182° |
| 2026-05-04 20:29 | 44.12165 | 2.04166 | 34947 ft | 450 kts | 182° |
| 2026-05-04 20:30 | 44.05903 | 2.04043 | 34947 ft | 450 kts | 182° |
| 2026-05-04 20:30 | 43.99648 | 2.03919 | 34950 ft | 451 kts | 182° |
| 2026-05-04 20:31 | 43.93377 | 2.03796 | 34953 ft | 451 kts | 182° |
| 2026-05-04 20:31 | 43.87094 | 2.03673 | 34957 ft | 452 kts | 182° |
| 2026-05-04 20:32 | 43.80786 | 2.03550 | 34970 ft | 453 kts | 182° |
| 2026-05-04 20:32 | 43.74482 | 2.03427 | 34976 ft | 454 kts | 182° |
| 2026-05-04 20:33 | 43.68156 | 2.03303 | 34986 ft | 455 kts | 182° |
| 2026-05-04 20:33 | 43.61817 | 2.03180 | 34981 ft | 457 kts | 183° |
| 2026-05-04 20:34 | 43.55457 | 2.03057 | 34983 ft | 458 kts | 183° |
| 2026-05-04 20:34 | 43.49086 | 2.02933 | 34982 ft | 459 kts | 183° |
| 2026-05-04 20:35 | 43.42709 | 2.02811 | 34993 ft | 460 kts | 183° |
| 2026-05-04 20:35 | 43.36277 | 2.02687 | 34988 ft | 461 kts | 183° |
| 2026-05-04 20:36 | 43.29895 | 2.02564 | 34987 ft | 461 kts | 184° |
| 2026-05-04 20:36 | 43.24536 | 2.02461 | 34987 ft | 462 kts | 184° |
| 2026-05-04 20:37 | 43.18118 | 2.02338 | 34988 ft | 462 kts | 184° |
| 2026-05-04 20:37 | 43.11664 | 2.02215 | 34981 ft | 462 kts | 184° |
| 2026-05-04 20:38 | 43.05253 | 2.02093 | 34983 ft | 462 kts | 184° |
| 2026-05-04 20:38 | 42.98825 | 2.01970 | 34975 ft | 462 kts | 184° |
| 2026-05-04 20:39 | 42.92423 | 2.01850 | 34972 ft | 462 kts | 184° |
| 2026-05-04 20:39 | 42.85980 | 2.01727 | 34962 ft | 462 kts | 184° |
| 2026-05-04 20:40 | 42.79557 | 2.01605 | 34969 ft | 462 kts | 184° |
| 2026-05-04 20:40 | 42.73124 | 2.01483 | 34964 ft | 463 kts | 184° |
| 2026-05-04 20:41 | 42.66675 | 2.01362 | 34959 ft | 463 kts | 184° |
| 2026-05-04 20:41 | 42.60228 | 2.01240 | 34961 ft | 464 kts | 184° |
| 2026-05-04 20:42 | 42.53757 | 2.01119 | 34953 ft | 464 kts | 184° |
| 2026-05-04 20:42 | 42.47305 | 2.00998 | 34954 ft | 464 kts | 185° |
| 2026-05-04 20:43 | 42.40834 | 2.00877 | 34944 ft | 465 kts | 185° |
| 2026-05-04 20:43 | 42.34372 | 2.00958 | 34943 ft | 467 kts | 180° |
| 2026-05-04 20:44 | 42.27905 | 2.01608 | 34947 ft | 467 kts | 180° |
| 2026-05-04 20:44 | 42.21424 | 2.02265 | 34938 ft | 467 kts | 180° |
| 2026-05-04 20:45 | 42.14954 | 2.02897 | 34933 ft | 465 kts | 180° |
| 2026-05-04 20:45 | 42.08512 | 2.03512 | 34945 ft | 465 kts | 180° |
| 2026-05-04 20:46 | 42.02047 | 2.04130 | 34935 ft | 465 kts | 180° |
| 2026-05-04 20:46 | 41.95619 | 2.04743 | 34939 ft | 465 kts | 180° |
| 2026-05-04 20:47 | 41.89144 | 2.05360 | 34942 ft | 465 kts | 180° |
| 2026-05-04 20:47 | 41.82688 | 2.05974 | 34945 ft | 466 kts | 180° |
| 2026-05-04 20:48 | 41.76240 | 2.06585 | 34955 ft | 466 kts | 180° |
| 2026-05-04 20:48 | 41.69738 | 2.07202 | 34956 ft | 467 kts | 180° |
| 2026-05-04 20:49 | 41.63822 | 2.07754 | 34964 ft | 467 kts | 181° |
| 2026-05-04 20:49 | 41.57771 | 2.08310 | 34968 ft | 467 kts | 181° |
| 2026-05-04 20:50 | 41.51294 | 2.08907 | 34970 ft | 467 kts | 181° |
| 2026-05-04 20:50 | 41.44802 | 2.09505 | 34966 ft | 468 kts | 181° |
| 2026-05-04 20:51 | 41.38317 | 2.10102 | 34963 ft | 468 kts | 181° |
| 2026-05-04 20:51 | 41.31817 | 2.10771 | 34964 ft | 470 kts | 178° |
| 2026-05-04 20:52 | 41.25343 | 2.12611 | 34962 ft | 476 kts | 170° |
| 2026-05-04 20:52 | 41.18954 | 2.14964 | 34960 ft | 477 kts | 170° |
| 2026-05-04 20:53 | 41.12560 | 2.17274 | 34954 ft | 477 kts | 171° |
| 2026-05-04 20:53 | 41.06171 | 2.19548 | 34952 ft | 477 kts | 171° |
| 2026-05-04 20:54 | 40.99759 | 2.21820 | 34942 ft | 477 kts | 171° |
| 2026-05-04 20:54 | 40.93343 | 2.24092 | 34939 ft | 478 kts | 171° |
| 2026-05-04 20:55 | 40.86889 | 2.26374 | 34939 ft | 478 kts | 171° |
| 2026-05-04 20:55 | 40.80513 | 2.28624 | 34939 ft | 478 kts | 171° |
| 2026-05-04 20:56 | 40.74059 | 2.30900 | 34945 ft | 478 kts | 171° |
| 2026-05-04 20:56 | 40.67635 | 2.33164 | 34942 ft | 477 kts | 171° |
| 2026-05-04 20:57 | 40.61238 | 2.35411 | 34946 ft | 477 kts | 171° |
| 2026-05-04 20:57 | 40.54835 | 2.37628 | 34946 ft | 477 kts | 171° |
| 2026-05-04 20:58 | 40.48417 | 2.39846 | 34946 ft | 477 kts | 171° |
| 2026-05-04 20:58 | 40.42009 | 2.42067 | 34945 ft | 476 kts | 172° |
| 2026-05-04 20:59 | 40.35606 | 2.44284 | 34944 ft | 476 kts | 172° |
| 2026-05-04 20:59 | 40.29175 | 2.46506 | 34961 ft | 476 kts | 172° |